Pocahontas, Arkansas
Current Conditions -  °F | °C
As of 6:55 PM on Friday 24 Oct 2014 (Local Time) from KARG Reporting Station
Clear Clear  
Wind Chill: 64°   Ceiling: Unl
Heat Index: 64°   Visibility: 10mi
Dew Point: 55°   Wind: 5mph
Humidity: 73%   Direction: 190°S
Pressure: 30.06"   Gusts: NA
Location:  36.28°N, 90.94°W
Report Text: KARG 242355Z AUTO 19004KT 10SM CLR 18/13 A3006 RMK AO1 10230 20180 402300070 57003
Loading
Personal Weather Stations






























Interactive Weather Map
Tropical Storm Tracking
New forecast layout! Learn more

10-Day Weather Forecast

Advertisements
Track Severe Weather on mobile